Weather at Hatuey Airport

Public forecast

Using degrees Celsius for public forecast. Weather courtesy of forecast.io.

Closest aviation weather report (METAR) to Hatuey Airport

Closest report is Ignacio Agramonte International Airport, 21.4 nm (39.6 km) NW. Retrieved 2021/09/25 22:52 UTC (21 minutes ago):

MUCM 252252Z VRB03KT 9000 FEW015CB SCT020 26/24 Q1014

Closest aviation forecast (TAF) to Hatuey Airport

Closest forecast is Ignacio Agramonte International Airport, 21.4 nm (39.6 km) NW. Retrieved 2021/09/25 18:07 UTC (5 hours ago):

TAF MUCM 251700Z 2518/2618 VRB03KT 9000 SCT018 TEMPO 2518/2524 VRB10KT 3000 TSRA SCT020CB BKN030 BECMG 2615/2617 05008KT